createdAt,value
2019-05-10T00:01:32.730Z,13.37
2019-05-10T00:04:17.268Z,7.47
2019-05-10T00:07:02.304Z,9.10
2019-05-10T00:09:28.369Z,9.50
2019-05-10T00:12:02.613Z,9.30
2019-05-10T00:14:47.603Z,10.37
2019-05-10T00:17:15.670Z,11.60
2019-05-10T00:19:41.850Z,9.77
2019-05-10T00:22:08.039Z,9.77
2019-05-10T00:24:34.181Z,8.90
2019-05-10T00:27:00.389Z,12.83
2019-05-10T00:29:26.549Z,11.80
2019-05-10T00:31:52.718Z,13.30
2019-05-10T00:34:18.962Z,9.90
2019-05-10T00:36:45.125Z,12.13
2019-05-10T00:39:11.329Z,11.53
2019-05-10T00:41:37.496Z,8.37
2019-05-10T00:44:03.756Z,9.30
2019-05-10T00:46:29.945Z,14.37
2019-05-10T00:48:56.094Z,12.63
2019-05-10T00:51:22.283Z,14.37
2019-05-10T00:53:48.476Z,19.23
2019-05-10T00:56:14.671Z,11.90
2019-05-10T00:58:40.871Z,15.13
2019-05-10T01:01:07.022Z,11.73
2019-05-10T01:03:33.193Z,11.43
2019-05-10T01:05:59.362Z,14.73
2019-05-10T01:08:25.526Z,11.13
2019-05-10T01:10:51.725Z,11.93
2019-05-10T01:13:17.952Z,13.80
2019-05-10T01:15:46.852Z,13.93
2019-05-10T01:18:12.306Z,10.93
2019-05-10T01:20:38.581Z,11.87
2019-05-10T01:23:04.741Z,12.53
2019-05-10T01:25:35.229Z,15.73
2019-05-10T01:27:59.016Z,11.93
2019-05-10T01:30:25.169Z,11.37
2019-05-10T01:32:51.539Z,12.10
2019-05-10T01:35:17.693Z,17.50
2019-05-10T01:37:43.852Z,14.60
2019-05-10T01:40:10.206Z,14.07
2019-05-10T01:42:37.381Z,14.57
2019-05-10T01:45:05.160Z,16.87
2019-05-10T01:47:31.312Z,13.80
2019-05-10T01:49:57.459Z,15.17
2019-05-10T01:52:23.635Z,14.23
2019-05-10T01:54:49.818Z,15.67
2019-05-10T01:57:15.996Z,17.00
2019-05-10T01:59:42.168Z,16.37
2019-05-10T02:02:08.353Z,13.57
2019-05-10T02:04:34.578Z,13.43
2019-05-10T02:07:00.830Z,12.23
2019-05-10T02:09:26.988Z,14.90
2019-05-10T02:11:53.262Z,15.70
2019-05-10T02:14:19.449Z,16.07
2019-05-10T02:16:45.625Z,11.53
2019-05-10T02:19:11.799Z,15.10
2019-05-10T02:21:37.961Z,13.97
2019-05-10T02:24:04.124Z,13.17
2019-05-10T02:26:30.295Z,19.20
2019-05-10T02:28:56.472Z,18.03
2019-05-10T02:31:22.641Z,17.10
2019-05-10T02:33:48.832Z,16.50
2019-05-10T02:36:15.007Z,23.13
2019-05-10T02:38:41.264Z,13.40
2019-05-10T02:41:07.416Z,17.03
2019-05-10T02:43:33.603Z,16.77
2019-05-10T02:45:59.862Z,13.17
2019-05-10T02:48:26.034Z,13.77
2019-05-10T02:50:52.309Z,12.70
2019-05-10T02:53:18.474Z,14.53
2019-05-10T02:55:45.351Z,16.10
2019-05-10T02:58:15.088Z,13.87
2019-05-10T03:00:40.183Z,16.10
2019-05-10T03:03:07.129Z,14.60
2019-05-10T03:05:35.405Z,14.27
2019-05-10T03:08:02.376Z,14.40
2019-05-10T03:10:31.200Z,14.07
2019-05-10T03:12:59.052Z,12.50
2019-05-10T03:15:29.112Z,19.30
2019-05-10T03:17:56.044Z,14.37
2019-05-10T03:20:23.009Z,10.83
2019-05-10T03:22:49.353Z,15.27
2019-05-10T03:25:15.509Z,12.20
2019-05-10T03:27:41.967Z,13.57
2019-05-10T03:30:08.594Z,16.67
2019-05-10T03:32:34.905Z,18.43
2019-05-10T03:35:01.233Z,13.33
2019-05-10T03:37:27.711Z,11.40
2019-05-10T03:39:54.000Z,11.30
2019-05-10T03:42:20.169Z,10.63
2019-05-10T03:44:46.352Z,14.73
2019-05-10T03:47:12.540Z,18.00
2019-05-10T03:49:38.784Z,9.10
2019-05-10T03:52:04.966Z,9.40
2019-05-10T03:54:31.188Z,12.37
2019-05-10T03:57:12.206Z,10.90
2019-05-10T03:59:25.561Z,11.93
2019-05-10T04:01:51.746Z,17.83
2019-05-10T04:04:17.970Z,16.70
2019-05-10T04:06:44.160Z,8.33
2019-05-10T04:09:10.362Z,12.83
2019-05-10T04:11:36.667Z,14.07
2019-05-10T04:14:02.934Z,8.23
2019-05-10T04:16:29.141Z,10.30
2019-05-10T04:18:55.332Z,12.87
2019-05-10T04:21:21.525Z,9.37
2019-05-10T04:23:47.688Z,10.90
2019-05-10T04:26:13.882Z,13.03
2019-05-10T04:28:40.069Z,13.73
2019-05-10T04:31:06.305Z,9.67
2019-05-10T04:33:32.545Z,12.10
2019-05-10T04:35:58.868Z,12.97
2019-05-10T04:38:25.070Z,11.67
2019-05-10T04:40:51.372Z,14.10
2019-05-10T04:43:17.538Z,9.60
2019-05-10T04:45:43.718Z,14.37
2019-05-10T04:48:09.972Z,13.67
2019-05-10T04:50:36.297Z,13.43
2019-05-10T04:53:02.683Z,13.20
2019-05-10T04:55:28.906Z,7.73
2019-05-10T04:57:55.120Z,9.63
2019-05-10T05:00:21.477Z,7.47
2019-05-10T05:02:47.653Z,7.70
2019-05-10T05:05:14.022Z,10.00
2019-05-10T05:07:40.188Z,7.40
2019-05-10T05:10:06.702Z,6.50
2019-05-10T05:12:32.982Z,7.23
2019-05-10T05:14:59.212Z,5.70
2019-05-10T05:17:25.499Z,8.23
2019-05-10T05:19:51.796Z,4.07
2019-05-10T05:22:17.962Z,4.67
2019-05-10T05:24:44.236Z,6.00
2019-05-10T05:27:10.465Z,6.27
2019-05-10T05:29:36.640Z,6.53
2019-05-10T05:32:03.699Z,4.37
2019-05-10T05:34:30.163Z,4.90
2019-05-10T05:36:56.535Z,3.40
2019-05-10T05:39:22.821Z,4.90
2019-05-10T05:41:51.601Z,5.27
2019-05-10T05:44:20.294Z,6.00
2019-05-10T05:46:45.333Z,5.13
2019-05-10T05:49:11.522Z,5.57
2019-05-10T05:51:37.727Z,6.27
2019-05-10T05:54:04.399Z,3.97
2019-05-10T05:56:30.786Z,4.10
2019-05-10T05:58:57.082Z,4.33
2019-05-10T06:01:26.810Z,7.03
2019-05-10T06:03:51.404Z,7.00
2019-05-10T06:06:21.744Z,9.03
2019-05-10T06:08:45.641Z,5.87
2019-05-10T06:11:11.820Z,9.37
2019-05-10T06:13:38.026Z,7.47
2019-05-10T06:16:06.286Z,4.53
2019-05-10T06:18:32.409Z,7.73
2019-05-10T06:20:58.669Z,6.93
2019-05-10T06:23:29.197Z,6.60
2019-05-10T06:25:52.990Z,7.17
2019-05-10T06:28:28.767Z,4.90
2019-05-10T06:30:47.286Z,8.13
2019-05-10T06:33:13.596Z,7.90
2019-05-10T06:35:39.878Z,5.70
2019-05-10T06:38:06.040Z,7.00
2019-05-10T06:40:39.280Z,4.30
2019-05-10T06:43:00.342Z,7.57
2019-05-10T06:45:26.685Z,9.93
2019-05-10T06:47:53.523Z,4.83
2019-05-10T06:50:28.606Z,7.50
2019-05-10T06:52:51.744Z,5.83
2019-05-10T06:55:16.270Z,5.53
2019-05-10T06:57:42.497Z,7.33
2019-05-10T07:00:09.215Z,6.40
2019-05-10T07:02:35.587Z,4.50
2019-05-10T07:05:02.186Z,5.73
2019-05-10T07:07:43.279Z,5.73
2019-05-10T07:10:08.271Z,4.67
2019-05-10T07:12:24.582Z,5.93
2019-05-10T07:14:50.860Z,6.00
2019-05-10T07:17:17.068Z,10.50
2019-05-10T07:19:53.259Z,5.07
2019-05-10T07:22:11.690Z,7.43
2019-05-10T07:24:37.840Z,5.93
2019-05-10T07:27:05.798Z,4.23
2019-05-10T07:29:42.126Z,3.90
2019-05-10T07:32:00.306Z,8.10
2019-05-10T07:34:26.512Z,6.27
2019-05-10T07:36:52.713Z,3.20
2019-05-10T07:39:18.905Z,4.93
2019-05-10T07:41:45.107Z,5.00
2019-05-10T07:44:11.361Z,8.33
2019-05-10T07:46:40.027Z,3.67
2019-05-10T07:49:05.600Z,4.37
2019-05-10T07:51:31.786Z,5.83
2019-05-10T07:54:04.764Z,2.30
2019-05-10T07:56:26.084Z,4.63
2019-05-10T07:58:52.300Z,6.93
2019-05-10T08:01:30.329Z,4.73
2019-05-10T08:03:52.211Z,3.27
2019-05-10T08:06:15.564Z,2.60
2019-05-10T08:08:41.896Z,2.50
2019-05-10T08:11:08.654Z,3.57
2019-05-10T08:13:35.174Z,4.93
2019-05-10T08:16:05.519Z,4.67
2019-05-10T08:18:29.454Z,3.17
2019-05-10T08:21:02.012Z,2.83
2019-05-10T08:23:27.843Z,3.93
2019-05-10T08:25:53.456Z,6.63
2019-05-10T08:28:22.665Z,3.83
2019-05-10T08:30:57.285Z,3.17
2019-05-10T08:33:16.002Z,3.93
2019-05-10T08:35:45.907Z,5.77
2019-05-10T08:38:10.218Z,7.03
2019-05-10T08:40:38.011Z,3.83
2019-05-10T08:43:09.005Z,2.83
2019-05-10T08:45:33.702Z,9.37
2019-05-10T08:48:05.005Z,5.10
2019-05-10T08:50:44.231Z,6.63
2019-05-10T08:52:56.982Z,3.80
2019-05-10T08:55:23.318Z,4.00
2019-05-10T08:57:49.553Z,5.80
2019-05-10T09:00:15.923Z,5.93
2019-05-10T09:02:42.811Z,7.27
2019-05-10T09:05:09.407Z,2.33
2019-05-10T09:07:39.031Z,1.77
2019-05-10T09:10:05.370Z,2.33
2019-05-10T09:12:32.942Z,7.27
2019-05-10T09:15:06.333Z,2.30
2019-05-10T09:17:28.525Z,2.40
2019-05-10T09:19:54.778Z,2.20
2019-05-10T09:22:26.000Z,2.37
2019-05-10T09:24:50.052Z,1.80
2019-05-10T09:27:16.335Z,2.03
2019-05-10T09:29:43.059Z,6.67
2019-05-10T09:32:09.456Z,1.63
2019-05-10T09:34:35.652Z,4.93
2019-05-10T09:37:02.979Z,5.00
2019-05-10T09:39:32.136Z,1.63
2019-05-10T09:41:58.451Z,2.80
2019-05-10T09:44:24.604Z,2.20
2019-05-10T09:46:52.511Z,5.27
2019-05-10T09:49:18.892Z,4.77
2019-05-10T09:51:45.066Z,3.23
2019-05-10T09:54:11.303Z,3.50
2019-05-10T09:56:42.103Z,3.33
2019-05-10T09:59:08.033Z,1.63
2019-05-10T10:01:33.702Z,2.53
2019-05-10T10:04:02.094Z,4.40
2019-05-10T10:06:29.827Z,4.17
2019-05-10T10:08:57.768Z,4.97
2019-05-10T10:11:24.260Z,7.17
2019-05-10T10:13:59.002Z,5.30
2019-05-10T10:16:19.184Z,2.70
2019-05-10T10:18:47.658Z,6.83
2019-05-10T10:21:18.931Z,2.37
2019-05-10T10:23:41.625Z,3.07
2019-05-10T10:26:12.738Z,6.93
2019-05-10T10:28:37.311Z,6.33
2019-05-10T10:31:05.410Z,3.37
2019-05-10T10:33:32.276Z,8.57
2019-05-10T10:36:04.798Z,7.53
2019-05-10T10:38:30.617Z,2.10
2019-05-10T10:40:54.845Z,3.53
2019-05-10T10:43:21.100Z,2.20
2019-05-10T10:45:47.261Z,2.90
2019-05-10T10:48:13.445Z,7.97
2019-05-10T10:50:44.364Z,3.17
2019-05-10T10:53:08.139Z,1.60
2019-05-10T10:55:37.089Z,3.10
2019-05-10T10:58:02.656Z,3.90
2019-05-10T11:00:33.626Z,5.87
2019-05-10T11:03:01.080Z,2.37
2019-05-10T11:05:27.281Z,1.70
2019-05-10T11:07:53.482Z,1.93
2019-05-10T11:10:23.467Z,2.80
2019-05-10T11:12:51.290Z,1.67
2019-05-10T11:15:26.121Z,3.57
2019-05-10T11:17:45.910Z,1.70
2019-05-10T11:20:12.181Z,5.73
2019-05-10T11:22:41.826Z,4.97
2019-05-10T11:25:09.781Z,3.37
2019-05-10T11:27:34.862Z,2.17
2019-05-10T11:30:01.205Z,3.87
2019-05-10T11:32:27.549Z,3.83
2019-05-10T11:34:53.869Z,2.97
2019-05-10T11:37:31.049Z,5.33
2019-05-10T11:39:50.354Z,3.07
2019-05-10T11:42:16.569Z,8.27
2019-05-10T11:44:49.992Z,5.03
2019-05-10T11:47:22.886Z,5.73
2019-05-10T11:49:40.628Z,1.30
2019-05-10T11:52:10.081Z,1.80
2019-05-10T11:54:35.322Z,1.42
2019-05-10T11:57:06.530Z,2.12
2019-05-10T11:59:33.873Z,3.45
2019-05-10T12:01:59.982Z,3.20
2019-05-10T12:04:37.990Z,2.83
2019-05-10T12:06:53.923Z,1.60
2019-05-10T12:09:21.284Z,3.22
2019-05-10T12:11:52.307Z,4.30
2019-05-10T12:14:16.738Z,2.55
2019-05-10T12:16:43.052Z,3.90
2019-05-10T12:19:17.082Z,1.32
2019-05-10T12:21:37.506Z,3.77
2019-05-10T12:24:26.314Z,2.33
2019-05-10T12:29:11.640Z,1.57
2019-05-10T12:31:28.410Z,3.37
2019-05-10T12:33:54.649Z,1.52
2019-05-10T12:36:26.012Z,2.20
2019-05-10T12:38:49.108Z,2.00
2019-05-10T12:41:15.974Z,4.33
2019-05-10T12:43:43.660Z,2.67
2019-05-10T12:46:10.567Z,12.28
2019-05-10T12:48:36.971Z,2.40
2019-05-10T12:51:08.275Z,2.35
2019-05-10T12:53:31.631Z,1.30
2019-05-10T12:55:57.931Z,1.85
2019-05-10T12:58:24.124Z,5.37
2019-05-10T13:00:52.496Z,1.95
2019-05-10T13:03:19.596Z,3.62
2019-05-10T13:05:52.439Z,11.53
2019-05-10T13:08:14.415Z,2.50
2019-05-10T13:10:43.375Z,6.90
2019-05-10T13:13:09.816Z,1.60
2019-05-10T13:15:35.992Z,6.10
2019-05-10T13:18:02.295Z,2.33
2019-05-10T13:20:30.755Z,2.50
2019-05-10T13:22:56.812Z,2.20
2019-05-10T13:25:23.112Z,7.55
2019-05-10T13:27:49.399Z,1.70
2019-05-10T13:30:16.297Z,3.58
2019-05-10T13:32:42.629Z,2.92
2019-05-10T13:35:09.034Z,5.03
2019-05-10T13:37:35.287Z,1.87
2019-05-10T13:40:05.233Z,3.42
2019-05-10T13:42:36.241Z,2.70
2019-05-10T13:44:59.112Z,4.30
2019-05-10T13:47:25.749Z,4.40
2019-05-10T13:49:51.920Z,11.47
2019-05-10T13:52:18.156Z,4.10
2019-05-10T13:54:44.395Z,2.37
2019-05-10T13:57:10.782Z,2.45
2019-05-10T13:59:36.982Z,3.60
2019-05-10T14:02:03.630Z,2.92
2019-05-10T14:04:34.014Z,2.08
2019-05-10T14:07:00.129Z,6.20
2019-05-10T14:09:26.356Z,3.08
2019-05-10T14:11:52.710Z,3.17
2019-05-10T14:14:20.517Z,4.08
2019-05-10T14:16:47.029Z,4.55
2019-05-10T14:19:15.931Z,4.50
2019-05-10T14:21:41.449Z,1.90
2019-05-10T14:24:08.989Z,5.35
2019-05-10T14:26:35.800Z,6.40
2019-05-10T14:29:02.026Z,4.83
2019-05-10T14:31:28.419Z,1.70
2019-05-10T14:34:14.796Z,10.85
2019-05-10T14:36:22.703Z,2.37
2019-05-10T14:38:53.586Z,5.53
2019-05-10T14:41:17.113Z,5.87
2019-05-10T14:43:43.281Z,4.03
2019-05-10T14:46:13.812Z,4.17
2019-05-10T14:48:37.706Z,2.90
2019-05-10T14:51:11.236Z,3.95
2019-05-10T14:53:31.988Z,2.97
2019-05-10T14:55:58.233Z,10.75
2019-05-10T14:58:25.001Z,4.53
2019-05-10T15:00:51.265Z,10.70
2019-05-10T15:03:17.526Z,5.57
2019-05-10T15:05:48.845Z,3.17
2019-05-10T15:08:11.767Z,3.90
2019-05-10T15:10:39.407Z,6.75
2019-05-10T15:13:06.033Z,6.05
2019-05-10T15:15:37.226Z,1.93
2019-05-10T15:18:01.939Z,3.15
2019-05-10T15:20:28.844Z,3.55
2019-05-10T15:22:55.135Z,4.70
2019-05-10T15:25:21.424Z,6.87
2019-05-10T15:27:47.632Z,4.67
2019-05-10T15:30:14.849Z,8.65
2019-05-10T15:32:41.072Z,8.10
2019-05-10T15:35:08.818Z,7.47
2019-05-10T15:37:35.523Z,4.07
2019-05-10T15:40:06.278Z,2.80
2019-05-10T15:42:36.297Z,3.57
2019-05-10T15:45:05.221Z,4.50
2019-05-10T15:47:29.189Z,7.47
2019-05-10T15:49:59.956Z,4.13
2019-05-10T15:52:23.713Z,6.03
2019-05-10T15:54:50.193Z,7.47
2019-05-10T15:57:20.292Z,7.67
2019-05-10T15:59:44.879Z,2.25
2019-05-10T16:02:11.123Z,5.77
2019-05-10T16:04:37.425Z,7.47
2019-05-10T16:07:03.759Z,12.50
2019-05-10T16:09:30.199Z,3.72
2019-05-10T16:12:01.686Z,12.07
2019-05-10T16:14:24.510Z,3.92
2019-05-10T16:16:50.814Z,3.37
2019-05-10T16:19:18.644Z,4.50
2019-05-10T16:21:46.825Z,3.85
2019-05-10T16:24:13.709Z,9.28
2019-05-10T16:26:40.110Z,3.85
2019-05-10T16:29:06.337Z,4.95
2019-05-10T16:31:32.537Z,2.93
2019-05-10T16:33:58.804Z,4.58
2019-05-10T16:36:28.479Z,5.97
2019-05-10T16:38:54.230Z,6.03
2019-05-10T16:41:20.475Z,2.60
2019-05-10T16:43:51.602Z,3.58
2019-05-10T16:46:15.174Z,2.60
2019-05-10T16:48:41.451Z,1.80
2019-05-10T16:51:09.973Z,8.80
2019-05-10T16:53:37.653Z,4.62
2019-05-10T16:56:23.871Z,3.80
2019-05-10T16:58:53.237Z,6.67
2019-05-10T17:01:25.284Z,6.67
2019-05-10T17:03:51.178Z,3.27
2019-05-10T17:06:15.711Z,2.00
2019-05-10T17:08:41.884Z,5.08
2019-05-10T17:11:10.214Z,6.78
2019-05-10T17:13:41.001Z,7.42
2019-05-10T17:16:04.501Z,4.85
2019-05-10T17:18:30.736Z,8.07
2019-05-10T17:20:57.053Z,4.47
2019-05-10T17:23:23.300Z,3.50
2019-05-10T17:25:49.638Z,3.07
2019-05-10T17:28:15.862Z,2.62
2019-05-10T17:30:44.710Z,5.22
2019-05-10T17:33:10.934Z,4.70
2019-05-10T17:35:42.222Z,5.77
2019-05-10T17:38:07.853Z,2.20
2019-05-10T17:40:34.634Z,3.70
2019-05-10T17:43:00.877Z,2.70
2019-05-10T17:45:27.231Z,3.63
2019-05-10T17:47:53.622Z,4.57
2019-05-10T17:50:19.945Z,3.37
2019-05-10T17:52:46.250Z,4.83
2019-05-10T17:55:16.672Z,4.05
2019-05-10T17:57:41.667Z,8.55
2019-05-10T18:00:08.590Z,5.00
2019-05-10T18:02:34.801Z,6.62
2019-05-10T18:05:06.050Z,7.57
2019-05-10T18:07:29.108Z,5.75
2019-05-10T18:09:56.355Z,5.27
2019-05-10T18:12:26.709Z,4.00
2019-05-10T18:14:55.811Z,2.50
2019-05-10T18:17:20.810Z,4.80
2019-05-10T18:19:47.070Z,7.50
2019-05-10T18:22:13.279Z,2.98
2019-05-10T18:24:42.299Z,4.97
2019-05-10T18:27:07.990Z,14.75
2019-05-10T18:29:34.259Z,5.78
2019-05-10T18:32:00.479Z,5.80
2019-05-10T18:34:33.242Z,7.73
2019-05-10T18:36:54.855Z,7.60
2019-05-10T18:39:21.150Z,4.90
2019-05-10T18:41:48.098Z,7.33
2019-05-10T18:44:15.866Z,7.17
2019-05-10T18:46:42.258Z,12.27
2019-05-10T18:49:08.454Z,4.07
2019-05-10T18:51:34.824Z,8.23
2019-05-10T18:54:01.374Z,4.78
2019-05-10T18:56:31.314Z,9.77
2019-05-10T18:58:55.698Z,14.97
2019-05-10T19:01:21.926Z,4.33
2019-05-10T19:03:48.221Z,5.35
2019-05-10T19:06:14.449Z,5.27
2019-05-10T19:08:43.858Z,6.40
2019-05-10T19:11:08.868Z,7.57
2019-05-10T19:13:46.746Z,4.80
2019-05-10T19:16:03.376Z,7.57
2019-05-10T19:18:29.648Z,7.10
2019-05-10T19:20:55.970Z,6.13
2019-05-10T19:23:22.255Z,3.53
2019-05-10T19:25:51.669Z,2.93
2019-05-10T19:28:21.042Z,6.87
2019-05-10T19:30:59.175Z,7.03
2019-05-10T19:33:29.745Z,6.23
2019-05-10T19:35:54.509Z,8.40
2019-05-10T19:38:20.740Z,4.00
2019-05-10T19:40:47.005Z,12.37
2019-05-10T19:43:15.332Z,5.27
2019-05-10T19:45:41.317Z,7.97
2019-05-10T19:48:07.485Z,17.37
2019-05-10T19:50:33.646Z,5.00
2019-05-10T19:53:04.024Z,10.83
2019-05-10T19:55:27.977Z,7.30
2019-05-10T19:57:56.462Z,7.40
2019-05-10T20:00:22.293Z,7.43
2019-05-10T20:02:48.467Z,7.80
2019-05-10T20:05:34.529Z,21.27
2019-05-10T20:08:00.762Z,15.13
2019-05-10T20:10:26.939Z,10.40
2019-05-10T20:12:53.127Z,6.57
2019-05-10T20:15:19.290Z,9.27
2019-05-10T20:17:45.870Z,11.20
2019-05-10T20:20:12.450Z,7.57
2019-05-10T20:22:38.642Z,7.17
2019-05-10T20:25:05.918Z,7.07
2019-05-10T20:27:32.096Z,5.70
2019-05-10T20:29:58.262Z,3.27
2019-05-10T20:32:24.448Z,8.87
2019-05-10T20:34:50.592Z,8.33
2019-05-10T20:37:16.762Z,3.70
2019-05-10T20:39:43.028Z,10.67
2019-05-10T20:42:09.206Z,5.40
2019-05-10T20:44:35.387Z,7.80
2019-05-10T20:47:01.638Z,10.93
2019-05-10T20:49:28.077Z,9.47
2019-05-10T20:51:54.253Z,4.17
2019-05-10T20:54:20.496Z,6.90
2019-05-10T20:56:46.674Z,5.63
2019-05-10T20:59:12.901Z,9.07
2019-05-10T21:01:39.070Z,9.10
2019-05-10T21:04:05.245Z,4.97
2019-05-10T21:06:31.406Z,8.87
2019-05-10T21:08:57.662Z,6.37
2019-05-10T21:11:23.827Z,4.27
2019-05-10T21:13:50.028Z,2.23
2019-05-10T21:16:16.161Z,13.43
2019-05-10T21:18:42.354Z,4.97
2019-05-10T21:21:08.592Z,4.77
2019-05-10T21:23:34.766Z,3.50
2019-05-10T21:26:00.958Z,8.70
2019-05-10T21:28:27.156Z,7.70
2019-05-10T21:30:53.816Z,4.60
2019-05-10T21:33:20.037Z,3.13
2019-05-10T21:35:46.289Z,2.30
2019-05-10T21:38:12.505Z,3.43
2019-05-10T21:40:38.842Z,4.90
2019-05-10T21:43:05.106Z,7.97
2019-05-10T21:45:31.296Z,3.57
2019-05-10T21:47:57.487Z,2.07
2019-05-10T21:50:23.648Z,6.20
2019-05-10T21:52:49.844Z,5.47
2019-05-10T21:55:16.002Z,3.43
2019-05-10T21:57:42.240Z,5.20
2019-05-10T22:00:10.124Z,3.33
2019-05-10T22:02:36.298Z,3.13
2019-05-10T22:05:04.307Z,5.00
2019-05-10T22:07:30.461Z,6.27
2019-05-10T22:09:56.657Z,2.23
2019-05-10T22:12:22.856Z,3.70
2019-05-10T22:14:49.090Z,3.00
2019-05-10T22:17:15.240Z,6.10
2019-05-10T22:19:41.428Z,6.07
2019-05-10T22:22:07.689Z,2.37
2019-05-10T22:24:33.848Z,5.13
2019-05-10T22:27:00.035Z,4.67
2019-05-10T22:29:26.275Z,2.70
2019-05-10T22:31:52.430Z,2.67
2019-05-10T22:34:18.711Z,10.70
2019-05-10T22:36:45.159Z,7.83
2019-05-10T22:39:11.367Z,10.20
2019-05-10T22:41:37.534Z,2.63
2019-05-10T22:44:03.709Z,3.37
2019-05-10T22:46:29.888Z,4.17
2019-05-10T22:48:56.086Z,6.87
2019-05-10T22:51:22.331Z,5.50
2019-05-10T22:53:59.048Z,6.00
2019-05-10T22:56:16.576Z,7.67
2019-05-10T22:58:42.778Z,4.40
2019-05-10T23:01:08.966Z,5.17
2019-05-10T23:03:35.143Z,5.60
2019-05-10T23:06:01.327Z,7.23
2019-05-10T23:08:27.535Z,2.17
2019-05-10T23:10:53.871Z,5.70
2019-05-10T23:13:20.085Z,3.67
2019-05-10T23:15:46.346Z,4.47
2019-05-10T23:18:12.533Z,4.67
2019-05-10T23:20:38.715Z,3.17
2019-05-10T23:23:04.934Z,6.70
2019-05-10T23:25:31.145Z,7.07
2019-05-10T23:27:57.312Z,8.90
2019-05-10T23:30:23.524Z,2.40
2019-05-10T23:32:49.711Z,2.37
2019-05-10T23:35:16.204Z,6.90
2019-05-10T23:37:42.508Z,3.67
2019-05-10T23:40:09.784Z,6.87
2019-05-10T23:42:35.949Z,3.23
2019-05-10T23:45:04.747Z,2.67
2019-05-10T23:47:30.918Z,5.27
2019-05-10T23:49:57.120Z,3.30
2019-05-10T23:52:23.311Z,3.37
2019-05-10T23:54:49.468Z,5.63
2019-05-10T23:57:15.615Z,3.17
2019-05-10T23:59:41.805Z,1.70
